Rosebud, Missouri
Current Conditions -  °F | °C
As of 8:55 AM on Saturday 20 Dec 2014 (Local Time) from KFYG Reporting Station
Haze Haze  
Wind Chill: 31°   Ceiling: 3200
Heat Index: 36°   Visibility: 4mi
Dew Point: 32°   Wind: 6mph
Humidity: 87%   Direction: 140°SE
Pressure: 30.27"   Gusts: NA
Location:  38.39°N, 91.4°W
Report Text: KFYG 201455Z AUTO 14005KT 4SM BR SCT020 OVC032 02/00 A3027 RMK AO2
Loading
Personal Weather Stations






























Interactive Weather Map New forecast layout! Learn more

10-Day Weather Forecast

Advertisements
Track Severe Weather on mobile